Time;durP1;ratioP1;P1;durP2;ratioP2;P2;SDS_P1;SDS_P2;PMS_P1;PMS_P2;Temp;Humidity;BMP_temperature;BMP_pressure;BME280_temperature;BME280_humidity;BME280_pressure;Samples;Min_cycle;Max_cycle;Signal;HPM_P1;HPM_P2
2022/06/15 00:01:24;;;;;;;6.60;4.38;;;13.30;56.00;;;;;;5031144;28;20220;-51
2022/06/15 00:03:55;;;;;;;4.55;4.10;;;13.30;55.90;;;;;;5027028;28;20550;-51
2022/06/15 00:06:27;;;;;;;6.75;3.88;;;13.40;55.90;;;;;;5012564;28;20698;-51
2022/06/15 00:09:01;;;;;;;4.85;3.50;;;13.50;55.80;;;;;;5012212;28;20217;-52
2022/06/15 00:11:33;;;;;;;4.00;3.47;;;13.50;55.70;;;;;;5006178;28;20215;-51
2022/06/15 00:14:06;;;;;;;4.95;3.50;;;13.60;55.70;;;;;;5011745;28;20196;-52
2022/06/15 00:16:37;;;;;;;3.20;2.88;;;13.70;55.50;;;;;;5012467;28;20193;-54
2022/06/15 00:19:07;;;;;;;4.30;2.97;;;13.70;55.20;;;;;;5011618;28;20591;-50
2022/06/15 00:21:38;;;;;;;3.15;2.67;;;13.80;54.80;;;;;;5011822;28;20221;-51
2022/06/15 00:24:11;;;;;;;2.67;2.38;;;13.80;54.40;;;;;;5014031;28;20562;-52
2022/06/15 00:26:43;;;;;;;2.70;2.30;;;13.90;54.10;;;;;;5014515;28;20769;-52
2022/06/15 00:29:14;;;;;;;3.00;2.45;;;13.90;53.90;;;;;;5012110;28;20225;-57
2022/06/15 00:31:48;;;;;;;3.60;2.30;;;14.00;53.60;;;;;;5011040;28;20192;-52
2022/06/15 00:34:18;;;;;;;3.05;2.05;;;14.00;53.30;;;;;;5012979;28;20201;-50
2022/06/15 00:36:49;;;;;;;2.97;1.90;;;14.10;53.00;;;;;;5011028;28;20204;-49
2022/06/15 00:39:22;;;;;;;1.90;1.70;;;14.10;52.60;;;;;;5009679;28;20231;-49
2022/06/15 00:41:52;;;;;;;2.35;1.67;;;14.20;52.20;;;;;;4992507;28;20244;-50
2022/06/15 00:44:37;;;;;;;1.27;1.15;;;14.20;51.90;;;;;;5031008;28;20199;-51
2022/06/15 00:47:14;;;;;;;1.40;1.20;;;14.30;51.60;;;;;;5030632;28;20192;-49
2022/06/15 00:49:49;;;;;;;1.98;1.27;;;14.30;51.30;;;;;;5030289;28;20253;-50
2022/06/15 00:52:24;;;;;;;1.40;1.27;;;14.30;51.00;;;;;;5031184;28;20577;-49
2022/06/15 00:54:57;;;;;;;1.13;1.02;;;14.40;50.70;;;;;;5030874;28;20195;-49
2022/06/15 00:57:29;;;;;;;1.40;1.20;;;14.40;50.40;;;;;;5030140;28;20742;-49
2022/06/15 01:00:01;;;;;;;1.13;1.00;;;14.40;50.10;;;;;;5030581;28;20203;-50
2022/06/15 01:02:32;;;;;;;1.10;1.00;;;14.50;50.00;;;;;;5030200;28;20220;-50
2022/06/15 01:05:07;;;;;;;1.50;1.20;;;14.50;49.90;;;;;;5028480;28;20192;-52
2022/06/15 01:07:56;;;;;;;2.00;1.05;;;14.50;49.80;;;;;;5030211;28;20226;-54
2022/06/15 01:10:39;;;;;;;1.83;1.00;;;14.60;49.70;;;;;;5008723;28;20201;-52
2022/06/15 01:13:21;;;;;;;1.30;0.80;;;14.60;49.60;;;;;;4991807;28;20228;-54
2022/06/15 01:16:01;;;;;;;0.70;0.60;;;14.70;49.40;;;;;;4991176;28;20197;-50
2022/06/15 01:18:38;;;;;;;0.88;0.60;;;14.70;49.20;;;;;;4992188;28;20213;-50
2022/06/15 01:21:18;;;;;;;0.40;0.40;;;14.70;48.90;;;;;;4991086;28;20196;-50
2022/06/15 01:24:28;;;;;;;0.73;0.70;;;14.80;48.80;;;;;;4991810;28;20218;-50
2022/06/15 01:27:37;;;;;;;0.90;0.60;;;14.80;48.70;;;;;;4990706;28;20212;-53
2022/06/15 01:30:22;;;;;;;0.80;0.60;;;14.80;48.50;;;;;;4990481;28;20228;-51
2022/06/15 01:33:14;;;;;;;0.63;0.60;;;14.90;48.50;;;;;;4991107;28;20252;-51
2022/06/15 01:35:53;;;;;;;0.63;0.57;;;14.90;48.40;;;;;;4990530;28;20197;-49
2022/06/15 01:38:33;;;;;;;0.60;0.50;;;15.00;48.40;;;;;;4990465;28;20213;-52
2022/06/15 01:41:11;;;;;;;0.68;0.50;;;15.00;48.40;;;;;;4991379;28;20212;-54
2022/06/15 01:43:46;;;;;;;0.55;0.50;;;15.00;48.40;;;;;;5021812;28;20443;-53
2022/06/15 01:46:19;;;;;;;0.50;0.35;;;15.10;48.50;;;;;;5030420;28;20203;-52
2022/06/15 01:48:53;;;;;;;0.43;0.40;;;15.10;48.40;;;;;;5030022;28;20623;-51
2022/06/15 01:51:26;;;;;;;0.45;0.43;;;15.20;48.40;;;;;;5028725;28;20193;-50
2022/06/15 01:54:01;;;;;;;1.00;0.57;;;15.20;48.40;;;;;;5009551;28;20669;-54
2022/06/15 01:56:37;;;;;;;0.40;0.40;;;15.20;48.40;;;;;;5010368;28;20204;-54
2022/06/15 01:59:16;;;;;;;0.85;0.40;;;15.30;48.40;;;;;;4996798;28;20224;-54
2022/06/15 02:01:55;;;;;;;0.75;0.40;;;15.40;48.40;;;;;;5010411;28;20267;-53
2022/06/15 02:04:34;;;;;;;0.30;0.30;;;15.40;48.30;;;;;;5018331;28;20239;-52
2022/06/15 02:07:18;;;;;;;0.47;0.47;;;15.40;48.30;;;;;;5030024;28;20672;-53
2022/06/15 02:09:55;;;;;;;0.40;0.40;;;15.50;48.30;;;;;;5018718;28;20212;-50
2022/06/15 02:12:38;;;;;;;0.40;0.40;;;15.50;48.30;;;;;;4990313;28;20200;-51
2022/06/15 02:15:13;;;;;;;0.60;0.40;;;15.60;48.40;;;;;;5002415;28;20234;-51
2022/06/15 02:17:49;;;;;;;0.52;0.38;;;15.60;48.40;;;;;;5013000;28;20224;-51
2022/06/15 02:20:22;;;;;;;0.40;0.40;;;15.70;48.50;;;;;;5015287;28;20204;-51
2022/06/15 02:22:56;;;;;;;0.45;0.40;;;15.70;48.40;;;;;;5012439;28;20231;-50
2022/06/15 02:25:30;;;;;;;0.40;0.40;;;15.80;48.40;;;;;;5012524;28;20197;-52
2022/06/15 02:28:01;;;;;;;0.20;0.20;;;15.80;48.30;;;;;;5012407;28;20789;-53
2022/06/15 02:30:33;;;;;;;0.50;0.40;;;15.90;48.20;;;;;;5030766;28;20674;-51
2022/06/15 02:33:15;;;;;;;0.40;0.30;;;15.90;48.20;;;;;;5016541;28;20201;-52
2022/06/15 02:35:45;;;;;;;0.55;0.30;;;15.90;48.10;;;;;;5033160;28;20211;-50
2022/06/15 02:38:16;;;;;;;0.30;0.30;;;16.00;48.10;;;;;;5033081;28;20219;-50
2022/06/15 02:40:47;;;;;;;0.22;0.22;;;16.00;48.10;;;;;;5005939;28;20212;-51
2022/06/15 02:43:20;;;;;;;0.20;0.20;;;16.10;48.10;;;;;;4994205;28;20233;-50
2022/06/15 02:45:52;;;;;;;0.28;0.28;;;16.10;48.00;;;;;;5012026;28;20653;-50
2022/06/15 02:48:25;;;;;;;0.50;0.25;;;16.20;48.00;;;;;;5013425;28;20221;-53
2022/06/15 02:50:59;;;;;;;0.20;0.20;;;16.20;48.00;;;;;;5012897;28;20231;-56
2022/06/15 02:53:32;;;;;;;1.30;0.30;;;16.20;48.00;;;;;;5012911;28;20197;-50
2022/06/15 02:56:04;;;;;;;0.13;0.13;;;16.30;48.20;;;;;;5012671;28;20208;-50
2022/06/15 02:58:38;;;;;;;0.30;0.30;;;16.30;48.20;;;;;;5012766;28;20216;-50
2022/06/15 03:01:09;;;;;;;0.30;0.30;;;16.40;48.30;;;;;;5013100;28;20201;-51
2022/06/15 03:03:42;;;;;;;0.40;0.40;;;16.40;48.40;;;;;;5013304;28;20712;-50
2022/06/15 03:06:14;;;;;;;0.30;0.30;;;16.40;48.40;;;;;;5020639;28;20206;-49
2022/06/15 03:08:45;;;;;;;0.95;0.63;;;16.40;48.60;;;;;;5032898;28;20582;-53
2022/06/15 03:11:16;;;;;;;0.90;0.60;;;16.50;48.70;;;;;;5015745;28;20292;-51
2022/06/15 03:13:47;;;;;;;1.02;0.68;;;16.50;48.90;;;;;;5012339;28;20244;-49
2022/06/15 03:16:18;;;;;;;1.48;0.70;;;16.50;49.00;;;;;;5013164;28;20201;-51
2022/06/15 03:18:50;;;;;;;0.52;0.50;;;16.50;49.10;;;;;;5012181;28;20217;-51
2022/06/15 03:21:21;;;;;;;1.67;1.08;;;16.60;49.20;;;;;;5012505;28;20197;-53
2022/06/15 03:23:52;;;;;;;2.40;1.00;;;16.60;49.40;;;;;;5012786;28;20224;-52
2022/06/15 03:26:23;;;;;;;1.70;1.27;;;16.60;49.60;;;;;;5013254;28;20661;-50
2022/06/15 03:28:53;;;;;;;2.55;1.40;;;16.70;49.70;;;;;;5011293;28;20221;-58
2022/06/15 03:31:24;;;;;;;1.95;1.23;;;16.70;49.90;;;;;;5012933;28;20565;-59
2022/06/15 03:33:57;;;;;;;2.45;1.38;;;16.70;50.00;;;;;;5012778;28;20197;-54
2022/06/15 03:36:27;;;;;;;3.28;1.42;;;16.70;50.20;;;;;;5012694;28;20656;-54
2022/06/15 03:38:58;;;;;;;3.03;1.83;;;16.80;50.30;;;;;;5012757;28;20217;-54
2022/06/15 03:41:29;;;;;;;2.78;1.35;;;16.80;50.30;;;;;;5012251;28;20204;-53
2022/06/15 03:43:59;;;;;;;2.75;1.40;;;16.80;50.40;;;;;;5010842;28;20232;-56
2022/06/15 03:46:31;;;;;;;2.47;1.50;;;16.90;50.50;;;;;;5025114;28;20196;-53
2022/06/15 03:49:03;;;;;;;1.80;1.30;;;16.90;50.50;;;;;;5031520;28;20274;-56
2022/06/15 03:51:34;;;;;;;2.60;1.38;;;16.90;50.60;;;;;;5032465;28;20199;-56
2022/06/15 03:54:05;;;;;;;3.17;1.42;;;17.00;50.80;;;;;;5031528;28;20797;-60
2022/06/15 03:56:47;;;;;;;2.00;1.20;;;17.00;50.70;;;;;;5031551;28;20227;-59
2022/06/15 03:59:18;;;;;;;3.53;1.75;;;17.00;50.70;;;;;;5030924;28;20215;-52
2022/06/15 04:01:49;;;;;;;3.88;1.30;;;17.10;50.70;;;;;;5032261;28;20582;-52
2022/06/15 04:04:21;;;;;;;2.15;1.30;;;17.10;50.60;;;;;;5031608;28;20231;-51
2022/06/15 04:06:52;;;;;;;3.03;1.52;;;17.10;50.60;;;;;;5029803;28;20193;-51
2022/06/15 04:09:22;;;;;;;2.67;1.60;;;17.10;50.60;;;;;;5024829;28;20213;-50
2022/06/15 04:12:08;;;;;;;3.35;1.65;;;17.20;50.70;;;;;;5013904;28;20727;-50
2022/06/15 04:14:39;;;;;;;2.65;1.58;;;17.20;50.70;;;;;;5012025;28;20255;-51
2022/06/15 04:17:10;;;;;;;2.83;1.52;;;17.20;50.70;;;;;;5011955;28;20207;-50
2022/06/15 04:19:43;;;;;;;3.45;1.60;;;17.30;50.70;;;;;;5011459;28;20201;-50
2022/06/15 04:22:14;;;;;;;3.20;1.50;;;17.30;50.70;;;;;;5011487;28;20193;-53
2022/06/15 04:24:44;;;;;;;4.15;2.05;;;17.30;50.70;;;;;;5010701;28;20231;-50
2022/06/15 04:27:15;;;;;;;4.88;2.00;;;17.30;50.70;;;;;;5011424;28;20201;-51
2022/06/15 04:29:46;;;;;;;3.30;2.10;;;17.30;50.70;;;;;;5012118;28;20676;-50
2022/06/15 04:32:16;;;;;;;3.42;2.38;;;17.30;50.70;;;;;;5011244;28;20201;-57
2022/06/15 04:34:49;;;;;;;4.53;2.15;;;17.30;50.70;;;;;;5011915;28;20223;-52
2022/06/15 04:37:19;;;;;;;3.22;2.30;;;17.30;50.70;;;;;;5013892;28;20189;-53
2022/06/15 04:39:50;;;;;;;4.40;2.40;;;17.30;50.70;;;;;;5011680;28;20575;-50
2022/06/15 04:42:21;;;;;;;3.67;2.50;;;17.30;50.70;;;;;;5011607;28;20197;-53
2022/06/15 04:44:51;;;;;;;5.10;2.75;;;17.30;50.70;;;;;;5011193;28;20232;-49
2022/06/15 04:47:22;;;;;;;4.47;2.58;;;17.30;51.20;;;;;;5011088;28;20200;-50
2022/06/15 04:49:55;;;;;;;5.63;2.85;;;17.30;50.70;;;;;;5010993;28;20192;-49
2022/06/15 04:52:25;;;;;;;4.35;2.97;;;17.30;50.80;;;;;;5012105;28;20193;-51
2022/06/15 04:54:56;;;;;;;5.63;3.25;;;17.30;50.80;;;;;;5011639;28;20201;-55
2022/06/15 04:57:27;;;;;;;4.65;3.00;;;17.30;50.80;;;;;;5011351;28;20677;-57
2022/06/15 04:59:58;;;;;;;5.90;3.47;;;17.30;50.80;;;;;;5011341;28;20203;-50
2022/06/15 05:02:28;;;;;;;3.83;3.00;;;17.30;50.80;;;;;;5011240;28;20200;-53
2022/06/15 05:05:01;;;;;;;7.03;3.42;;;17.30;50.90;;;;;;5010732;28;20235;-50
2022/06/15 05:07:31;;;;;;;5.68;2.78;;;17.30;50.80;;;;;;5011448;28;20197;-51
2022/06/15 05:10:02;;;;;;;5.93;3.30;;;17.30;50.80;;;;;;5011350;28;20196;-51
2022/06/15 05:12:33;;;;;;;6.45;3.50;;;17.30;50.80;;;;;;5011393;28;20292;-52
2022/06/15 05:15:04;;;;;;;5.15;3.58;;;17.20;50.80;;;;;;5011344;28;20203;-50
2022/06/15 05:17:34;;;;;;;4.68;3.28;;;17.20;50.80;;;;;;5011202;28;20228;-49
2022/06/15 05:20:08;;;;;;;4.72;3.25;;;17.20;50.80;;;;;;5010115;28;20197;-52
2022/06/15 05:22:39;;;;;;;4.30;3.10;;;17.20;50.90;;;;;;5010896;28;20199;-50
2022/06/15 05:25:11;;;;;;;4.97;2.90;;;17.20;50.80;;;;;;5011572;28;20200;-52
2022/06/15 05:27:42;;;;;;;6.40;3.25;;;17.10;50.90;;;;;;5011504;28;20217;-49
2022/06/15 05:30:15;;;;;;;4.13;2.95;;;17.10;50.90;;;;;;5003062;28;20201;-51
2022/06/15 05:32:46;;;;;;;4.20;2.60;;;17.10;50.90;;;;;;5005607;28;20227;-50
2022/06/15 05:35:18;;;;;;;4.80;2.90;;;17.10;50.90;;;;;;5011095;28;20197;-51
2022/06/15 05:37:49;;;;;;;5.97;2.88;;;17.00;50.90;;;;;;4998352;28;20213;-49
2022/06/15 05:40:20;;;;;;;6.55;3.05;;;17.00;51.00;;;;;;4990224;28;20201;-50
2022/06/15 05:42:51;;;;;;;4.90;2.95;;;17.00;51.00;;;;;;4989460;28;20198;-54
2022/06/15 05:45:21;;;;;;;4.80;2.72;;;17.00;51.10;;;;;;4990265;28;20208;-53
2022/06/15 05:47:52;;;;;;;5.95;2.90;;;17.00;51.20;;;;;;4998945;28;20223;-50
2022/06/15 05:50:25;;;;;;;4.72;2.42;;;17.00;51.20;;;;;;5029911;28;20192;-52
2022/06/15 05:52:56;;;;;;;4.45;3.10;;;16.90;51.10;;;;;;5034037;28;20287;-51
2022/06/15 05:55:26;;;;;;;5.00;3.00;;;16.90;51.10;;;;;;5034304;28;20202;-50
2022/06/15 05:57:57;;;;;;;3.67;2.85;;;16.90;51.10;;;;;;5034011;28;20247;-55
2022/06/15 06:00:28;;;;;;;7.28;2.70;;;16.90;51.20;;;;;;5034289;28;20278;-52
2022/06/15 06:02:59;;;;;;;5.55;3.20;;;16.90;51.20;;;;;;5034394;28;20196;-55
2022/06/15 06:05:32;;;;;;;4.53;2.88;;;16.90;51.20;;;;;;5034860;28;20211;-52
2022/06/15 06:08:02;;;;;;;6.15;3.22;;;16.80;51.30;;;;;;4999238;28;20221;-51
2022/06/15 06:10:33;;;;;;;4.95;2.65;;;16.80;51.40;;;;;;4994665;28;20204;-54
2022/06/15 06:13:04;;;;;;;5.35;2.88;;;16.80;51.50;;;;;;4996109;28;20696;-51
2022/06/15 06:15:35;;;;;;;4.43;2.90;;;16.80;51.60;;;;;;5031055;28;20250;-54
2022/06/15 06:18:05;;;;;;;5.13;2.83;;;16.80;51.70;;;;;;5022619;28;20217;-56
2022/06/15 06:20:39;;;;;;;5.22;3.20;;;16.80;51.70;;;;;;5013365;28;20193;-52
2022/06/15 06:23:09;;;;;;;3.88;2.70;;;16.80;51.70;;;;;;5013708;28;20197;-55
2022/06/15 06:25:40;;;;;;;3.97;2.78;;;16.80;51.70;;;;;;5028591;28;20196;-51
2022/06/15 06:28:18;;;;;;;5.15;3.15;;;16.70;51.70;;;;;;5034399;28;20255;-52
2022/06/15 06:30:48;;;;;;;4.40;2.88;;;16.70;51.70;;;;;;5033726;28;20192;-53
2022/06/15 06:33:19;;;;;;;3.40;2.47;;;16.70;51.70;;;;;;5034191;28;20203;-52
2022/06/15 06:35:52;;;;;;;4.85;2.60;;;16.70;52.30;;;;;;5033856;28;20199;-53
2022/06/15 06:38:24;;;;;;;5.38;2.92;;;16.70;51.80;;;;;;4994255;28;20213;-54
2022/06/15 06:40:56;;;;;;;4.68;3.33;;;16.70;51.90;;;;;;4993852;28;20205;-53
2022/06/15 06:43:26;;;;;;;4.63;3.03;;;16.60;51.80;;;;;;4997423;28;20221;-52
2022/06/15 06:45:57;;;;;;;5.80;2.50;;;16.60;52.10;;;;;;5008155;28;20204;-56
2022/06/15 06:48:28;;;;;;;5.70;2.80;;;16.60;52.00;;;;;;5014245;28;20217;-53
2022/06/15 06:51:00;;;;;;;3.92;2.90;;;16.60;52.00;;;;;;5013783;28;20672;-53
2022/06/15 06:53:31;;;;;;;4.70;2.75;;;16.50;52.00;;;;;;5013190;28;20323;-55
2022/06/15 06:56:03;;;;;;;7.47;3.40;;;16.50;52.10;;;;;;5014215;28;20604;-54
2022/06/15 06:58:34;;;;;;;5.72;3.13;;;16.50;52.10;;;;;;5014159;28;20225;-54
2022/06/15 07:01:05;;;;;;;5.40;2.80;;;16.40;52.10;;;;;;5013129;28;20653;-52
2022/06/15 07:03:36;;;;;;;4.15;2.72;;;16.40;52.20;;;;;;5012634;28;20232;-53
2022/06/15 07:06:11;;;;;;;4.65;2.53;;;16.40;52.20;;;;;;5013129;28;20208;-51
2022/06/15 07:08:42;;;;;;;5.97;2.60;;;16.30;52.20;;;;;;5013534;28;20216;-52
2022/06/15 07:11:14;;;;;;;4.72;3.10;;;16.30;52.20;;;;;;5013476;28;20726;-57
2022/06/15 07:13:44;;;;;;;4.40;2.90;;;16.30;52.30;;;;;;5013321;28;20197;-51
2022/06/15 07:16:17;;;;;;;6.43;3.33;;;16.30;52.30;;;;;;5012968;28;20208;-50
2022/06/15 07:18:48;;;;;;;3.38;2.72;;;16.30;52.30;;;;;;5013258;28;20300;-53
2022/06/15 07:21:22;;;;;;;4.63;2.85;;;16.20;52.40;;;;;;5013141;28;20676;-51
2022/06/15 07:23:55;;;;;;;4.38;2.60;;;16.20;52.60;;;;;;5012805;28;20691;-52
2022/06/15 07:26:27;;;;;;;4.22;2.80;;;16.20;52.60;;;;;;5013367;28;20235;-50
2022/06/15 07:28:58;;;;;;;6.18;3.17;;;16.20;52.60;;;;;;5012939;28;20553;-50
2022/06/15 07:31:31;;;;;;;6.43;3.22;;;16.10;52.60;;;;;;5012161;28;20538;-51
2022/06/15 07:34:02;;;;;;;5.07;2.80;;;16.10;52.60;;;;;;5012499;28;20728;-54
2022/06/15 07:36:35;;;;;;;4.63;2.78;;;16.10;52.60;;;;;;5013137;28;20550;-54
2022/06/15 07:39:06;;;;;;;4.43;3.13;;;16.00;52.60;;;;;;5013006;28;20216;-54
2022/06/15 07:41:38;;;;;;;4.68;3.10;;;16.00;52.70;;;;;;5013305;28;20566;-52
2022/06/15 07:44:09;;;;;;;6.47;3.08;;;16.00;52.70;;;;;;5012299;28;20227;-53
2022/06/15 07:46:40;;;;;;;4.18;2.80;;;16.00;52.80;;;;;;5012075;28;20200;-54
2022/06/15 07:52:00;;;;;;;3.72;3.00;;;15.90;52.80;;;;;;5012923;28;20585;-54
2022/06/15 07:54:32;;;;;;;3.75;2.75;;;15.90;52.80;;;;;;5013194;28;20197;-51
2022/06/15 07:57:03;;;;;;;4.88;3.20;;;15.80;52.90;;;;;;5001051;28;20577;-53
2022/06/15 07:59:33;;;;;;;4.97;2.75;;;15.80;52.90;;;;;;4993410;28;20241;-52
2022/06/15 08:02:04;;;;;;;4.50;3.17;;;15.80;53.00;;;;;;5006455;28;20209;-50
2022/06/15 08:04:35;;;;;;;3.83;2.80;;;15.80;53.10;;;;;;5011942;28;20232;-51
2022/06/15 08:07:10;;;;;;;4.07;2.78;;;15.70;53.00;;;;;;5012263;28;20208;-52
2022/06/15 08:09:40;;;;;;;3.38;2.20;;;15.70;53.00;;;;;;5015283;28;20242;-52
2022/06/15 08:12:18;;;;;;;4.72;3.13;;;15.70;53.00;;;;;;5012302;28;20211;-51
2022/06/15 08:14:50;;;;;;;4.15;3.22;;;15.70;53.10;;;;;;5012057;28;20200;-52
2022/06/15 08:17:24;;;;;;;4.40;2.97;;;15.60;53.00;;;;;;5011560;28;20204;-52
2022/06/15 08:19:59;;;;;;;4.28;2.97;;;15.60;53.00;;;;;;5000866;28;20201;-53
2022/06/15 08:22:33;;;;;;;3.88;2.65;;;15.60;53.10;;;;;;5013943;28;20192;-51
2022/06/15 08:25:05;;;;;;;4.00;2.65;;;15.50;53.10;;;;;;5011595;28;20227;-53
2022/06/15 08:27:37;;;;;;;3.85;2.88;;;15.60;53.20;;;;;;5011147;28;20407;-51
2022/06/15 08:30:10;;;;;;;4.32;2.92;;;15.50;53.20;;;;;;5011933;28;20197;-51
2022/06/15 08:32:41;;;;;;;3.70;2.78;;;15.50;53.20;;;;;;5011454;28;20193;-51
2022/06/15 08:35:14;;;;;;;4.05;2.67;;;15.50;53.30;;;;;;5012169;28;20646;-51
2022/06/15 08:37:47;;;;;;;5.00;3.03;;;15.40;53.20;;;;;;5011463;28;20227;-52
2022/06/15 08:40:18;;;;;;;3.42;2.80;;;15.40;53.30;;;;;;5011843;28;20200;-51
2022/06/15 08:42:58;;;;;;;4.70;3.00;;;15.40;53.30;;;;;;5014493;28;20196;-51
2022/06/15 08:45:35;;;;;;;4.60;2.80;;;15.40;53.30;;;;;;5012091;28;20260;-53
2022/06/15 08:48:27;;;;;;;4.15;3.08;;;15.30;53.30;;;;;;4992599;28;20228;-51
2022/06/15 08:51:01;;;;;;;3.40;3.10;;;15.30;53.30;;;;;;4992426;28;20658;-54
2022/06/15 08:53:41;;;;;;;4.32;2.67;;;15.30;53.30;;;;;;4992453;28;20205;-50
2022/06/15 08:56:15;;;;;;;4.38;2.70;;;15.30;53.70;;;;;;4992280;28;20220;-54
2022/06/15 08:58:49;;;;;;;3.53;2.80;;;15.30;54.40;;;;;;4991654;28;20217;-54
2022/06/15 09:01:28;;;;;;;3.90;2.60;;;15.30;54.50;;;;;;4996847;28;20680;-51
2022/06/15 09:04:08;;;;;;;3.53;2.53;;;15.20;54.40;;;;;;5011186;28;20229;-54
2022/06/15 09:06:48;;;;;;;3.25;2.58;;;15.20;54.30;;;;;;5011617;28;20204;-51
2022/06/15 09:09:30;;;;;;;5.22;2.83;;;15.20;54.20;;;;;;4995836;28;20685;-53
2022/06/15 09:15:09;;;;;;;5.50;2.90;;;15.20;54.10;;;;;;5017108;28;20234;-50
2022/06/15 09:17:40;;;;;;;3.58;2.60;;;15.20;54.10;;;;;;5029093;28;20212;-52
2022/06/15 09:20:17;;;;;;;4.20;2.80;;;15.20;54.10;;;;;;5029751;28;20567;-52
2022/06/15 09:22:52;;;;;;;3.60;2.47;;;15.20;54.20;;;;;;5031118;28;20203;-52
2022/06/15 09:25:30;;;;;;;3.65;2.60;;;15.10;54.70;;;;;;5029749;28;20723;-53
2022/06/15 09:28:06;;;;;;;4.95;2.80;;;15.10;54.10;;;;;;4993166;28;20240;-51
2022/06/15 09:30:41;;;;;;;3.58;2.50;;;15.10;54.10;;;;;;5029917;28;20196;-51
2022/06/15 09:33:17;;;;;;;3.22;2.60;;;15.00;54.10;;;;;;5030516;28;20195;-53
2022/06/15 09:35:56;;;;;;;4.45;2.75;;;15.00;54.10;;;;;;5011162;28;20306;-52
2022/06/15 09:38:27;;;;;;;3.35;2.50;;;15.00;54.10;;;;;;4991364;28;20225;-52
2022/06/15 09:41:03;;;;;;;3.72;2.63;;;15.00;54.10;;;;;;5005202;28;20204;-51
2022/06/15 09:43:46;;;;;;;4.85;2.63;;;15.00;54.10;;;;;;5010205;28;20196;-54
2022/06/15 09:46:23;;;;;;;4.07;2.50;;;15.00;54.10;;;;;;5010647;28;20616;-51
2022/06/15 09:49:15;;;;;;;4.47;2.55;;;14.90;54.60;;;;;;5009894;28;20216;-54
2022/06/15 09:51:56;;;;;;;4.50;2.60;;;14.90;54.10;;;;;;5010589;28;20197;-55
2022/06/15 09:54:36;;;;;;;4.57;2.50;;;14.90;54.00;;;;;;5010588;28;20204;-51
2022/06/15 09:57:09;;;;;;;4.85;2.70;;;14.90;54.10;;;;;;5010079;28;20695;-51
2022/06/15 09:59:40;;;;;;;3.72;2.90;;;14.90;54.10;;;;;;5009630;28;20262;-50
2022/06/15 10:02:19;;;;;;;4.18;2.92;;;14.80;54.10;;;;;;5010759;28;20229;-54
2022/06/15 10:04:50;;;;;;;4.45;2.88;;;14.80;54.10;;;;;;5011644;28;20695;-51
2022/06/15 10:07:28;;;;;;;3.88;2.58;;;14.80;54.20;;;;;;5011710;28;20299;-52
2022/06/15 10:10:04;;;;;;;5.22;3.30;;;14.80;54.20;;;;;;5026350;28;20223;-55
2022/06/15 10:12:58;;;;;;;4.65;3.15;;;14.80;54.20;;;;;;5029796;28;20192;-55
2022/06/15 10:15:38;;;;;;;4.97;3.03;;;14.80;54.20;;;;;;5027857;28;20242;-51
2022/06/15 10:18:22;;;;;;;5.25;3.25;;;14.80;54.20;;;;;;4990110;28;20217;-52
2022/06/15 10:21:07;;;;;;;3.97;3.05;;;14.70;54.20;;;;;;4989932;28;20205;-54
2022/06/15 10:23:56;;;;;;;4.85;3.30;;;14.70;54.20;;;;;;4991035;28;20568;-55
2022/06/15 10:26:31;;;;;;;4.72;3.40;;;14.70;54.20;;;;;;4990656;28;20232;-53
2022/06/15 10:29:26;;;;;;;5.25;3.30;;;14.70;54.20;;;;;;4990155;28;20716;-50
2022/06/15 10:32:17;;;;;;;5.78;3.35;;;14.70;54.20;;;;;;4990733;28;20201;-51
2022/06/15 10:35:06;;;;;;;4.50;3.00;;;14.70;54.30;;;;;;4990139;28;20681;-54
2022/06/15 10:37:40;;;;;;;4.97;3.05;;;14.60;54.20;;;;;;5004898;28;20252;-52
2022/06/15 10:40:25;;;;;;;3.72;2.92;;;14.60;54.20;;;;;;5013099;28;20606;-55
2022/06/15 10:43:02;;;;;;;3.88;3.17;;;14.60;54.30;;;;;;5007069;28;20266;-52
2022/06/15 10:45:37;;;;;;;4.90;3.15;;;14.60;54.30;;;;;;4998480;28;20240;-54
2022/06/15 10:48:09;;;;;;;3.38;2.92;;;14.60;54.30;;;;;;4998924;28;20212;-52
2022/06/15 10:50:51;;;;;;;4.65;3.20;;;14.50;54.30;;;;;;5012595;28;20220;-52
2022/06/15 10:53:34;;;;;;;3.35;2.78;;;14.50;54.30;;;;;;5013236;28;20199;-51
2022/06/15 11:04:33;;;;;;;3.97;2.75;;;14.50;54.40;;;;;;5031368;28;20668;-50
2022/06/15 11:07:07;;;;;;;3.33;2.60;;;14.40;54.30;;;;;;5014301;28;20201;-51
2022/06/15 11:09:40;;;;;;;5.78;3.22;;;14.50;54.40;;;;;;4993799;28;20223;-53
2022/06/15 11:12:33;;;;;;;3.78;2.97;;;14.40;54.40;;;;;;4993089;28;20204;-52
2022/06/15 11:15:07;;;;;;;5.07;3.20;;;14.40;54.40;;;;;;4992913;28;20728;-54
2022/06/15 11:20:36;;;;;;;4.68;3.13;;;14.40;54.40;;;;;;4992976;28;20260;-52
2022/06/15 11:23:15;;;;;;;3.63;2.67;;;14.30;54.30;;;;;;5010691;28;20219;-52
2022/06/15 11:25:49;;;;;;;5.65;3.25;;;14.30;54.30;;;;;;5011454;28;20620;-53
2022/06/15 11:28:25;;;;;;;4.15;2.83;;;14.30;54.30;;;;;;5011327;28;20224;-54
2022/06/15 11:31:01;;;;;;;5.03;3.17;;;14.30;54.30;;;;;;5009225;28;20258;-53
2022/06/15 11:33:40;;;;;;;4.32;2.83;;;14.30;54.40;;;;;;5011711;28;20200;-52
2022/06/15 11:36:22;;;;;;;4.05;2.88;;;14.30;54.40;;;;;;5011289;28;20201;-55
2022/06/15 11:38:57;;;;;;;4.75;3.30;;;14.20;54.40;;;;;;5011320;28;20228;-54
2022/06/15 11:41:31;;;;;;;3.00;2.67;;;14.20;54.30;;;;;;5011358;28;20210;-52
2022/06/15 11:44:04;;;;;;;4.20;2.95;;;14.20;54.40;;;;;;5011051;28;20200;-52
2022/06/15 11:46:55;;;;;;;4.47;3.08;;;14.20;54.40;;;;;;5011411;28;20221;-54
2022/06/15 11:49:42;;;;;;;6.18;2.83;;;14.20;54.40;;;;;;5010576;28;20217;-51
2022/06/15 11:52:22;;;;;;;4.22;2.75;;;14.20;54.30;;;;;;5011221;28;20193;-55
2022/06/15 11:55:22;;;;;;;4.25;2.70;;;14.10;54.30;;;;;;5011902;28;20201;-52
2022/06/15 11:58:20;;;;;;;5.45;3.45;;;14.10;54.30;;;;;;5011357;28;20256;-56
2022/06/15 12:01:01;;;;;;;4.47;2.88;;;14.10;54.30;;;;;;5007013;28;20280;-51
2022/06/15 12:03:47;;;;;;;4.78;2.63;;;14.10;54.30;;;;;;5011118;28;20210;-51
2022/06/15 12:06:27;;;;;;;3.85;2.75;;;14.10;54.40;;;;;;5013028;28;20692;-54
2022/06/15 12:09:07;;;;;;;4.47;2.95;;;14.10;54.40;;;;;;5010852;28;20217;-55
2022/06/15 12:14:38;;;;;;;3.78;2.40;;;14.00;54.30;;;;;;5010835;28;20195;-52
2022/06/15 12:17:15;;;;;;;3.95;2.50;;;14.00;54.30;;;;;;5010610;28;20199;-55
2022/06/15 12:19:52;;;;;;;4.53;3.22;;;14.00;54.30;;;;;;5010668;28;20200;-55
2022/06/15 12:22:29;;;;;;;3.85;2.85;;;14.00;54.40;;;;;;5010059;28;20196;-54
2022/06/15 12:25:04;;;;;;;3.97;2.90;;;14.00;54.40;;;;;;5012799;28;20250;-54
2022/06/15 12:27:42;;;;;;;3.42;2.78;;;13.90;54.30;;;;;;5010415;28;20197;-53
2022/06/15 12:30:29;;;;;;;4.68;2.63;;;13.90;54.40;;;;;;5010345;28;20196;-51
2022/06/15 12:33:12;;;;;;;4.70;2.78;;;13.90;54.40;;;;;;5010426;28;20224;-52
2022/06/15 12:35:48;;;;;;;3.72;2.40;;;13.90;54.40;;;;;;5010181;28;20243;-53
2022/06/15 12:38:28;;;;;;;4.07;2.85;;;13.90;54.40;;;;;;5007734;28;20227;-50
2022/06/15 12:41:07;;;;;;;3.97;2.65;;;13.90;54.40;;;;;;5009910;28;20703;-57
2022/06/15 12:43:41;;;;;;;4.95;2.85;;;13.90;54.40;;;;;;5012237;28;20189;-54
2022/06/15 12:46:14;;;;;;;3.65;2.63;;;13.90;54.40;;;;;;5009960;28;20227;-55
2022/06/15 12:49:02;;;;;;;3.40;2.65;;;13.80;54.40;;;;;;5010562;28;20209;-54
2022/06/15 12:51:45;;;;;;;3.85;2.30;;;13.80;54.40;;;;;;5009918;28;20247;-51
2022/06/15 12:54:30;;;;;;;3.60;2.55;;;13.80;54.40;;;;;;5010625;28;20597;-57
2022/06/15 12:57:08;;;;;;;3.45;2.45;;;13.70;54.30;;;;;;5010215;28;20235;-51
2022/06/15 12:59:48;;;;;;;4.25;2.50;;;13.80;54.40;;;;;;5010165;28;20220;-54
2022/06/15 13:02:24;;;;;;;4.60;2.80;;;13.70;54.40;;;;;;5009581;28;20204;-51
2022/06/15 13:05:09;;;;;;;5.03;2.80;;;13.70;54.40;;;;;;5010260;28;20196;-52
2022/06/15 13:07:41;;;;;;;4.18;2.60;;;13.70;54.40;;;;;;5008951;28;20250;-54
2022/06/15 13:10:37;;;;;;;3.08;2.45;;;13.70;54.40;;;;;;5009262;28;20657;-51
2022/06/15 13:13:09;;;;;;;4.65;2.70;;;13.70;54.40;;;;;;5009480;28;20207;-55
2022/06/15 13:15:59;;;;;;;3.75;2.53;;;13.70;54.40;;;;;;5009717;28;20588;-54
2022/06/15 13:18:46;;;;;;;3.30;2.13;;;13.70;54.40;;;;;;5009895;28;20217;-54
2022/06/15 13:21:18;;;;;;;4.35;2.70;;;13.60;54.30;;;;;;5009553;28;20201;-54
2022/06/15 13:24:00;;;;;;;4.13;2.35;;;13.60;54.30;;;;;;5009220;28;20201;-52
2022/06/15 13:26:55;;;;;;;4.15;2.25;;;13.60;54.30;;;;;;5009826;28;20228;-57
2022/06/15 13:29:31;;;;;;;2.67;2.00;;;13.60;54.30;;;;;;5009644;28;20220;-52
2022/06/15 13:32:03;;;;;;;3.50;2.22;;;13.60;54.40;;;;;;5009976;28;20205;-53
2022/06/15 13:34:53;;;;;;;3.17;2.20;;;13.60;54.40;;;;;;5009791;28;20192;-53
2022/06/15 13:37:35;;;;;;;3.65;2.40;;;13.50;54.40;;;;;;5005834;28;20204;-52
2022/06/15 13:40:09;;;;;;;3.97;2.42;;;13.50;54.40;;;;;;5009941;28;20192;-53
2022/06/15 13:43:02;;;;;;;3.97;2.30;;;13.50;54.40;;;;;;5009431;28;20196;-52
2022/06/15 13:45:44;;;;;;;5.03;2.67;;;13.50;54.40;;;;;;5009342;28;20252;-51
2022/06/15 13:48:17;;;;;;;4.85;2.55;;;13.50;54.40;;;;;;5009031;28;20212;-54
2022/06/15 13:50:51;;;;;;;3.03;2.05;;;13.50;54.40;;;;;;5009323;28;20676;-54